sensor_id;sensor_type;location;lat;lon;timestamp;pressure;altitude;pressure_sealevel;temperature;humidity
61478;BME280;47345;52.334;10.392;2022-07-22T00:01:46;101069.48;;;18.62;77.47
61478;BME280;47345;52.334;10.392;2022-07-22T00:04:17;101072.62;;;18.60;77.47
61478;BME280;47345;52.334;10.392;2022-07-22T00:06:47;101075.77;;;18.59;77.42
61478;BME280;47345;52.334;10.392;2022-07-22T00:09:18;101081.10;;;18.57;77.50
61478;BME280;47345;52.334;10.392;2022-07-22T00:11:48;101080.58;;;18.55;77.58
61478;BME280;47345;52.334;10.392;2022-07-22T00:14:19;101078.34;;;18.52;77.57
61478;BME280;47345;52.334;10.392;2022-07-22T00:16:50;101076.45;;;18.49;77.77
61478;BME280;47345;52.334;10.392;2022-07-22T00:19:20;101079.57;;;18.47;77.71
61478;BME280;47345;52.334;10.392;2022-07-22T00:21:51;101080.99;;;18.45;77.73
61478;BME280;47345;52.334;10.392;2022-07-22T00:24:22;101081.89;;;18.43;77.93
61478;BME280;47345;52.334;10.392;2022-07-22T00:26:53;101081.64;;;18.41;77.98
61478;BME280;47345;52.334;10.392;2022-07-22T00:29:23;101080.02;;;18.41;78.09
61478;BME280;47345;52.334;10.392;2022-07-22T00:31:53;101083.69;;;18.41;78.37
61478;BME280;47345;52.334;10.392;2022-07-22T00:34:24;101081.34;;;18.43;78.41
61478;BME280;47345;52.334;10.392;2022-07-22T00:36:55;101083.21;;;18.47;78.37
61478;BME280;47345;52.334;10.392;2022-07-22T00:39:26;101081.15;;;18.49;78.42
61478;BME280;47345;52.334;10.392;2022-07-22T00:41:57;101079.52;;;18.51;78.36
61478;BME280;47345;52.334;10.392;2022-07-22T00:44:28;101078.94;;;18.52;78.39
61478;BME280;47345;52.334;10.392;2022-07-22T00:47:07;101080.29;;;18.53;78.27
61478;BME280;47345;52.334;10.392;2022-07-22T00:49:38;101078.50;;;18.53;78.09
61478;BME280;47345;52.334;10.392;2022-07-22T00:52:08;101077.95;;;18.53;78.09
61478;BME280;47345;52.334;10.392;2022-07-22T00:54:39;101073.02;;;18.52;77.95
61478;BME280;47345;52.334;10.392;2022-07-22T00:57:09;101075.86;;;18.51;77.96
61478;BME280;47345;52.334;10.392;2022-07-22T00:59:40;101076.45;;;18.49;78.12
61478;BME280;47345;52.334;10.392;2022-07-22T01:02:11;101077.06;;;18.49;78.08
61478;BME280;47345;52.334;10.392;2022-07-22T01:04:42;101072.55;;;18.48;78.04
61478;BME280;47345;52.334;10.392;2022-07-22T01:07:13;101074.42;;;18.47;78.09
61478;BME280;47345;52.334;10.392;2022-07-22T01:09:44;101075.99;;;18.45;78.14
61478;BME280;47345;52.334;10.392;2022-07-22T01:12:16;101069.05;;;18.44;78.06
61478;BME280;47345;52.334;10.392;2022-07-22T01:14:47;101071.46;;;18.42;78.03
61478;BME280;47345;52.334;10.392;2022-07-22T01:17:17;101071.70;;;18.40;77.93
61478;BME280;47345;52.334;10.392;2022-07-22T01:19:49;101070.71;;;18.37;77.96
61478;BME280;47345;52.334;10.392;2022-07-22T01:22:27;101073.49;;;18.35;77.98
61478;BME280;47345;52.334;10.392;2022-07-22T01:25:02;101071.73;;;18.32;78.08
61478;BME280;47345;52.334;10.392;2022-07-22T01:27:32;101073.70;;;18.30;78.08
61478;BME280;47345;52.334;10.392;2022-07-22T01:30:03;101073.82;;;18.27;78.21
61478;BME280;47345;52.334;10.392;2022-07-22T01:32:33;101073.98;;;18.25;78.23
61478;BME280;47345;52.334;10.392;2022-07-22T01:35:05;101079.59;;;18.22;78.35
61478;BME280;47345;52.334;10.392;2022-07-22T01:37:36;101080.58;;;18.22;78.51
61478;BME280;47345;52.334;10.392;2022-07-22T01:40:08;101081.42;;;18.22;78.63
61478;BME280;47345;52.334;10.392;2022-07-22T01:42:39;101079.27;;;18.23;78.64
61478;BME280;47345;52.334;10.392;2022-07-22T01:45:11;101076.95;;;18.23;78.70
61478;BME280;47345;52.334;10.392;2022-07-22T01:47:41;101079.94;;;18.25;78.79
61478;BME280;47345;52.334;10.392;2022-07-22T01:50:12;101079.88;;;18.26;78.81
61478;BME280;47345;52.334;10.392;2022-07-22T01:52:43;101081.95;;;18.27;78.85
61478;BME280;47345;52.334;10.392;2022-07-22T01:55:13;101082.69;;;18.28;78.83
61478;BME280;47345;52.334;10.392;2022-07-22T01:57:43;101083.30;;;18.28;78.88
61478;BME280;47345;52.334;10.392;2022-07-22T02:00:15;101088.14;;;18.30;78.97
61478;BME280;47345;52.334;10.392;2022-07-22T02:02:46;101089.34;;;18.32;78.82
61478;BME280;47345;52.334;10.392;2022-07-22T02:05:16;101088.08;;;18.32;78.86
61478;BME280;47345;52.334;10.392;2022-07-22T02:07:47;101093.79;;;18.33;78.82
61478;BME280;47345;52.334;10.392;2022-07-22T02:10:17;101090.54;;;18.33;78.84
61478;BME280;47345;52.334;10.392;2022-07-22T02:12:48;101091.05;;;18.34;78.83
61478;BME280;47345;52.334;10.392;2022-07-22T02:15:18;101085.11;;;18.34;79.07
61478;BME280;47345;52.334;10.392;2022-07-22T02:17:49;101085.70;;;18.33;79.02
61478;BME280;47345;52.334;10.392;2022-07-22T02:20:19;101085.02;;;18.34;79.01
61478;BME280;47345;52.334;10.392;2022-07-22T02:22:49;101085.63;;;18.35;79.01
61478;BME280;47345;52.334;10.392;2022-07-22T02:25:20;101080.33;;;18.36;79.10
61478;BME280;47345;52.334;10.392;2022-07-22T02:27:50;101081.40;;;18.37;79.11
61478;BME280;47345;52.334;10.392;2022-07-22T02:30:20;101081.76;;;18.38;79.14
61478;BME280;47345;52.334;10.392;2022-07-22T02:32:51;101079.05;;;18.39;79.11
61478;BME280;47345;52.334;10.392;2022-07-22T02:35:21;101076.64;;;18.40;79.02
61478;BME280;47345;52.334;10.392;2022-07-22T02:37:52;101077.27;;;18.42;78.94
61478;BME280;47345;52.334;10.392;2022-07-22T02:40:22;101075.64;;;18.44;78.98
61478;BME280;47345;52.334;10.392;2022-07-22T02:42:53;101076.34;;;18.45;78.95
61478;BME280;47345;52.334;10.392;2022-07-22T02:45:23;101080.13;;;18.47;78.94
61478;BME280;47345;52.334;10.392;2022-07-22T02:47:55;101082.04;;;18.49;79.11
61478;BME280;47345;52.334;10.392;2022-07-22T02:50:26;101085.27;;;18.51;79.26
61478;BME280;47345;52.334;10.392;2022-07-22T02:52:56;101086.25;;;18.51;80.08
61478;BME280;47345;52.334;10.392;2022-07-22T02:55:26;101087.77;;;18.52;80.57
61478;BME280;47345;52.334;10.392;2022-07-22T02:57:57;101090.31;;;18.53;81.04
61478;BME280;47345;52.334;10.392;2022-07-22T03:00:34;101097.54;;;18.51;81.63
61478;BME280;47345;52.334;10.392;2022-07-22T03:03:04;101095.90;;;18.49;82.03
61478;BME280;47345;52.334;10.392;2022-07-22T03:05:35;101096.14;;;18.48;82.22
61478;BME280;47345;52.334;10.392;2022-07-22T03:08:05;101094.45;;;18.45;82.21
61478;BME280;47345;52.334;10.392;2022-07-22T03:10:36;101095.16;;;18.44;82.42
61478;BME280;47345;52.334;10.392;2022-07-22T03:13:06;101090.89;;;18.41;82.65
61478;BME280;47345;52.334;10.392;2022-07-22T03:15:36;101097.22;;;18.42;82.92
61478;BME280;47345;52.334;10.392;2022-07-22T03:18:07;101096.98;;;18.41;83.20
61478;BME280;47345;52.334;10.392;2022-07-22T03:20:37;101098.29;;;18.40;83.35
61478;BME280;47345;52.334;10.392;2022-07-22T03:23:07;101100.29;;;18.40;83.29
61478;BME280;47345;52.334;10.392;2022-07-22T03:25:38;101099.44;;;18.39;83.74
61478;BME280;47345;52.334;10.392;2022-07-22T03:28:08;101101.77;;;18.39;84.02
61478;BME280;47345;52.334;10.392;2022-07-22T03:30:39;101103.20;;;18.39;84.34
61478;BME280;47345;52.334;10.392;2022-07-22T03:33:09;101100.30;;;18.38;84.25
61478;BME280;47345;52.334;10.392;2022-07-22T03:35:40;101103.48;;;18.36;84.28
61478;BME280;47345;52.334;10.392;2022-07-22T03:38:11;101104.23;;;18.34;84.30
61478;BME280;47345;52.334;10.392;2022-07-22T03:40:41;101102.96;;;18.32;84.52
61478;BME280;47345;52.334;10.392;2022-07-22T03:43:12;101104.23;;;18.28;84.66
61478;BME280;47345;52.334;10.392;2022-07-22T03:45:42;101110.17;;;18.26;84.73
61478;BME280;47345;52.334;10.392;2022-07-22T03:48:14;101111.70;;;18.21;85.19
61478;BME280;47345;52.334;10.392;2022-07-22T03:50:44;101116.27;;;18.17;85.30
61478;BME280;47345;52.334;10.392;2022-07-22T03:53:15;101119.63;;;18.13;85.57
61478;BME280;47345;52.334;10.392;2022-07-22T03:55:45;101123.12;;;18.09;85.83
61478;BME280;47345;52.334;10.392;2022-07-22T03:58:17;101123.76;;;18.05;85.55
61478;BME280;47345;52.334;10.392;2022-07-22T04:00:47;101131.59;;;18.00;85.68
61478;BME280;47345;52.334;10.392;2022-07-22T04:03:18;101131.42;;;17.93;85.25
61478;BME280;47345;52.334;10.392;2022-07-22T04:05:49;101133.95;;;17.86;85.13
61478;BME280;47345;52.334;10.392;2022-07-22T04:08:20;101132.38;;;17.82;85.19
61478;BME280;47345;52.334;10.392;2022-07-22T04:10:50;101138.08;;;17.77;85.19
61478;BME280;47345;52.334;10.392;2022-07-22T04:13:21;101137.01;;;17.73;85.25
61478;BME280;47345;52.334;10.392;2022-07-22T04:15:51;101144.63;;;17.69;85.37
61478;BME280;47345;52.334;10.392;2022-07-22T04:18:21;101149.02;;;17.65;85.47
61478;BME280;47345;52.334;10.392;2022-07-22T04:20:52;101150.21;;;17.58;85.20
61478;BME280;47345;52.334;10.392;2022-07-22T04:23:23;101150.41;;;17.52;85.06
61478;BME280;47345;52.334;10.392;2022-07-22T04:25:53;101153.10;;;17.48;85.12
61478;BME280;47345;52.334;10.392;2022-07-22T04:28:24;101155.50;;;17.44;84.81
61478;BME280;47345;52.334;10.392;2022-07-22T04:30:55;101156.90;;;17.39;84.63
61478;BME280;47345;52.334;10.392;2022-07-22T04:33:25;101156.88;;;17.36;84.66
61478;BME280;47345;52.334;10.392;2022-07-22T04:35:55;101163.52;;;17.33;84.38
61478;BME280;47345;52.334;10.392;2022-07-22T04:38:26;101163.30;;;17.32;84.21
61478;BME280;47345;52.334;10.392;2022-07-22T04:40:56;101164.80;;;17.29;83.74
61478;BME280;47345;52.334;10.392;2022-07-22T04:43:27;101167.80;;;17.25;83.35
61478;BME280;47345;52.334;10.392;2022-07-22T04:45:58;101166.77;;;17.21;83.13
61478;BME280;47345;52.334;10.392;2022-07-22T04:48:29;101174.01;;;17.18;83.18
61478;BME280;47345;52.334;10.392;2022-07-22T04:51:01;101167.42;;;17.16;83.34
61478;BME280;47345;52.334;10.392;2022-07-22T04:53:32;101170.30;;;17.14;83.45
61478;BME280;47345;52.334;10.392;2022-07-22T04:56:15;101166.84;;;17.11;83.71
61478;BME280;47345;52.334;10.392;2022-07-22T04:58:47;101166.59;;;17.10;83.67
61478;BME280;47345;52.334;10.392;2022-07-22T05:01:17;101169.02;;;17.10;83.57
61478;BME280;47345;52.334;10.392;2022-07-22T05:03:48;101169.59;;;17.11;83.76
61478;BME280;47345;52.334;10.392;2022-07-22T05:06:18;101170.59;;;17.11;83.43
61478;BME280;47345;52.334;10.392;2022-07-22T05:08:48;101174.40;;;17.11;82.98
61478;BME280;47345;52.334;10.392;2022-07-22T05:11:19;101179.95;;;17.09;83.12
61478;BME280;47345;52.334;10.392;2022-07-22T05:13:49;101182.05;;;17.11;83.23
61478;BME280;47345;52.334;10.392;2022-07-22T05:16:19;101185.85;;;17.12;83.25
61478;BME280;47345;52.334;10.392;2022-07-22T05:18:50;101186.23;;;17.13;83.05
61478;BME280;47345;52.334;10.392;2022-07-22T05:21:21;101189.75;;;17.10;82.93
61478;BME280;47345;52.334;10.392;2022-07-22T05:23:52;101194.16;;;17.09;82.74
61478;BME280;47345;52.334;10.392;2022-07-22T05:26:22;101194.05;;;17.08;82.63
61478;BME280;47345;52.334;10.392;2022-07-22T05:28:54;101199.05;;;17.06;82.49
61478;BME280;47345;52.334;10.392;2022-07-22T05:31:26;101201.41;;;17.05;82.52
61478;BME280;47345;52.334;10.392;2022-07-22T05:33:57;101202.56;;;17.05;82.46
61478;BME280;47345;52.334;10.392;2022-07-22T05:36:28;101198.70;;;17.05;82.39
61478;BME280;47345;52.334;10.392;2022-07-22T05:38:59;101201.60;;;17.04;82.14
61478;BME280;47345;52.334;10.392;2022-07-22T05:41:32;101202.41;;;17.04;82.18
61478;BME280;47345;52.334;10.392;2022-07-22T05:44:02;101208.16;;;17.04;81.96
61478;BME280;47345;52.334;10.392;2022-07-22T05:46:32;101209.70;;;17.03;82.03
61478;BME280;47345;52.334;10.392;2022-07-22T05:49:03;101211.84;;;17.02;81.99
61478;BME280;47345;52.334;10.392;2022-07-22T05:51:33;101211.59;;;17.02;82.06
61478;BME280;47345;52.334;10.392;2022-07-22T05:54:04;101215.30;;;17.02;81.93
61478;BME280;47345;52.334;10.392;2022-07-22T05:56:35;101218.08;;;17.00;81.84
61478;BME280;47345;52.334;10.392;2022-07-22T05:59:05;101222.73;;;16.99;81.92
61478;BME280;47345;52.334;10.392;2022-07-22T06:01:35;101224.59;;;16.97;81.86
61478;BME280;47345;52.334;10.392;2022-07-22T06:04:06;101231.55;;;16.94;81.72
61478;BME280;47345;52.334;10.392;2022-07-22T06:06:36;101230.86;;;16.92;81.89
61478;BME280;47345;52.334;10.392;2022-07-22T06:09:07;101239.85;;;16.91;81.84
61478;BME280;47345;52.334;10.392;2022-07-22T06:11:37;101238.27;;;16.91;82.06
61478;BME280;47345;52.334;10.392;2022-07-22T06:14:07;101238.20;;;16.90;81.93
61478;BME280;47345;52.334;10.392;2022-07-22T06:16:38;101238.59;;;16.90;81.98
61478;BME280;47345;52.334;10.392;2022-07-22T06:19:08;101238.61;;;16.89;82.22
61478;BME280;47345;52.334;10.392;2022-07-22T06:21:39;101242.90;;;16.88;82.67
61478;BME280;47345;52.334;10.392;2022-07-22T06:24:13;101241.92;;;16.86;83.17
61478;BME280;47345;52.334;10.392;2022-07-22T06:26:44;101240.52;;;16.83;83.42
61478;BME280;47345;52.334;10.392;2022-07-22T06:29:14;101241.38;;;16.82;83.80
61478;BME280;47345;52.334;10.392;2022-07-22T06:31:45;101240.84;;;16.82;84.04
61478;BME280;47345;52.334;10.392;2022-07-22T06:34:15;101238.94;;;16.82;84.45
61478;BME280;47345;52.334;10.392;2022-07-22T06:36:46;101241.78;;;16.81;84.85
61478;BME280;47345;52.334;10.392;2022-07-22T06:39:16;101243.01;;;16.79;85.14
61478;BME280;47345;52.334;10.392;2022-07-22T06:41:46;101246.48;;;16.77;85.38
61478;BME280;47345;52.334;10.392;2022-07-22T06:44:17;101251.05;;;16.76;85.45
61478;BME280;47345;52.334;10.392;2022-07-22T06:46:47;101248.98;;;16.75;85.62
61478;BME280;47345;52.334;10.392;2022-07-22T06:49:18;101252.83;;;16.74;85.66
61478;BME280;47345;52.334;10.392;2022-07-22T06:51:52;101250.76;;;16.73;86.06
61478;BME280;47345;52.334;10.392;2022-07-22T06:54:23;101248.27;;;16.75;86.29
61478;BME280;47345;52.334;10.392;2022-07-22T06:56:53;101245.42;;;16.78;86.37
61478;BME280;47345;52.334;10.392;2022-07-22T06:59:24;101246.06;;;16.79;85.91
61478;BME280;47345;52.334;10.392;2022-07-22T07:01:54;101247.20;;;16.83;86.05
61478;BME280;47345;52.334;10.392;2022-07-22T07:04:25;101246.25;;;16.87;85.69
61478;BME280;47345;52.334;10.392;2022-07-22T07:06:56;101247.70;;;16.89;85.36
61478;BME280;47345;52.334;10.392;2022-07-22T07:09:26;101246.65;;;16.91;84.68
61478;BME280;47345;52.334;10.392;2022-07-22T07:11:57;101247.75;;;16.94;84.47
61478;BME280;47345;52.334;10.392;2022-07-22T07:14:27;101247.55;;;16.96;84.38
61478;BME280;47345;52.334;10.392;2022-07-22T07:16:58;101249.89;;;16.99;84.00
61478;BME280;47345;52.334;10.392;2022-07-22T07:19:28;101247.44;;;17.01;83.42
61478;BME280;47345;52.334;10.392;2022-07-22T07:21:59;101249.27;;;17.04;83.07
61478;BME280;47345;52.334;10.392;2022-07-22T07:24:29;101252.14;;;17.05;82.62
61478;BME280;47345;52.334;10.392;2022-07-22T07:27:00;101254.23;;;17.07;82.70
61478;BME280;47345;52.334;10.392;2022-07-22T07:29:30;101254.30;;;17.08;82.30
61478;BME280;47345;52.334;10.392;2022-07-22T07:32:00;101251.59;;;17.07;82.24
61478;BME280;47345;52.334;10.392;2022-07-22T07:34:31;101256.80;;;17.06;82.43
61478;BME280;47345;52.334;10.392;2022-07-22T07:37:01;101257.67;;;17.07;82.84
61478;BME280;47345;52.334;10.392;2022-07-22T07:39:32;101257.19;;;17.13;83.06
61478;BME280;47345;52.334;10.392;2022-07-22T07:42:02;101261.91;;;17.20;82.97
61478;BME280;47345;52.334;10.392;2022-07-22T07:44:33;101262.14;;;17.30;83.09
61478;BME280;47345;52.334;10.392;2022-07-22T07:47:03;101262.82;;;17.37;82.45
61478;BME280;47345;52.334;10.392;2022-07-22T07:49:34;101264.80;;;17.46;81.88
61478;BME280;47345;52.334;10.392;2022-07-22T07:52:04;101266.45;;;17.57;81.45
61478;BME280;47345;52.334;10.392;2022-07-22T07:54:41;101264.12;;;17.63;80.02
61478;BME280;47345;52.334;10.392;2022-07-22T07:57:31;101265.64;;;17.69;79.65
61478;BME280;47345;52.334;10.392;2022-07-22T08:00:07;101266.66;;;17.76;79.42
61478;BME280;47345;52.334;10.392;2022-07-22T08:02:40;101263.86;;;17.84;79.39
61478;BME280;47345;52.334;10.392;2022-07-22T08:05:11;101263.23;;;17.94;79.13
61478;BME280;47345;52.334;10.392;2022-07-22T08:07:43;101262.10;;;18.05;78.93
61478;BME280;47345;52.334;10.392;2022-07-22T08:10:16;101261.16;;;18.19;78.52
61478;BME280;47345;52.334;10.392;2022-07-22T08:13:07;101261.29;;;18.36;78.40
61478;BME280;47345;52.334;10.392;2022-07-22T08:15:38;101262.92;;;18.49;77.82
61478;BME280;47345;52.334;10.392;2022-07-22T08:18:08;101263.41;;;18.64;77.29
61478;BME280;47345;52.334;10.392;2022-07-22T08:20:39;101262.01;;;18.76;76.95
61478;BME280;47345;52.334;10.392;2022-07-22T08:23:09;101260.16;;;18.90;76.51
61478;BME280;47345;52.334;10.392;2022-07-22T08:25:40;101262.84;;;19.06;76.42
61478;BME280;47345;52.334;10.392;2022-07-22T08:28:11;101266.24;;;19.22;75.96
61478;BME280;47345;52.334;10.392;2022-07-22T08:30:42;101265.03;;;19.36;74.90
61478;BME280;47345;52.334;10.392;2022-07-22T08:33:12;101268.36;;;19.47;74.12
61478;BME280;47345;52.334;10.392;2022-07-22T08:35:43;101266.53;;;19.59;73.56
61478;BME280;47345;52.334;10.392;2022-07-22T08:38:14;101269.02;;;19.71;72.50
61478;BME280;47345;52.334;10.392;2022-07-22T08:40:44;101270.16;;;19.81;72.05
61478;BME280;47345;52.334;10.392;2022-07-22T08:43:14;101268.37;;;19.88;71.20
61478;BME280;47345;52.334;10.392;2022-07-22T08:45:45;101269.09;;;19.89;70.45
61478;BME280;47345;52.334;10.392;2022-07-22T08:48:17;101265.92;;;19.89;70.61
61478;BME280;47345;52.334;10.392;2022-07-22T08:50:48;101271.49;;;19.88;70.19
61478;BME280;47345;52.334;10.392;2022-07-22T08:53:19;101268.71;;;19.85;69.87
61478;BME280;47345;52.334;10.392;2022-07-22T08:55:49;101272.22;;;19.85;70.15
61478;BME280;47345;52.334;10.392;2022-07-22T08:58:20;101270.84;;;19.89;69.70
61478;BME280;47345;52.334;10.392;2022-07-22T09:01:07;101271.34;;;19.93;69.27
61478;BME280;47345;52.334;10.392;2022-07-22T09:03:45;101273.46;;;20.01;68.97
61478;BME280;47345;52.334;10.392;2022-07-22T09:06:17;101274.93;;;20.08;68.82
61478;BME280;47345;52.334;10.392;2022-07-22T09:08:55;101276.90;;;20.16;68.62
61478;BME280;47345;52.334;10.392;2022-07-22T09:11:28;101274.36;;;20.25;68.76
61478;BME280;47345;52.334;10.392;2022-07-22T09:13:59;101275.14;;;20.31;67.99
61478;BME280;47345;52.334;10.392;2022-07-22T09:16:47;101272.65;;;20.32;67.73
61478;BME280;47345;52.334;10.392;2022-07-22T09:19:32;101275.83;;;20.32;67.78
61478;BME280;47345;52.334;10.392;2022-07-22T09:22:04;101276.14;;;20.31;67.65
61478;BME280;47345;52.334;10.392;2022-07-22T09:24:35;101273.25;;;20.30;67.63
61478;BME280;47345;52.334;10.392;2022-07-22T09:27:06;101272.42;;;20.26;67.51
61478;BME280;47345;52.334;10.392;2022-07-22T09:29:37;101270.84;;;20.19;67.18
61478;BME280;47345;52.334;10.392;2022-07-22T09:32:08;101268.42;;;20.11;67.50
61478;BME280;47345;52.334;10.392;2022-07-22T09:34:40;101271.95;;;20.09;67.57
61478;BME280;47345;52.334;10.392;2022-07-22T09:37:12;101272.22;;;20.09;67.74
61478;BME280;47345;52.334;10.392;2022-07-22T09:39:43;101272.02;;;20.14;68.10
61478;BME280;47345;52.334;10.392;2022-07-22T09:42:14;101275.71;;;20.26;68.27
61478;BME280;47345;52.334;10.392;2022-07-22T09:44:47;101272.21;;;20.43;67.96
61478;BME280;47345;52.334;10.392;2022-07-22T09:47:29;101277.08;;;20.60;67.43
61478;BME280;47345;52.334;10.392;2022-07-22T09:50:15;101277.86;;;20.76;66.59
61478;BME280;47345;52.334;10.392;2022-07-22T09:52:47;101276.20;;;20.88;66.18
61478;BME280;47345;52.334;10.392;2022-07-22T09:55:20;101279.04;;;20.94;65.44
61478;BME280;47345;52.334;10.392;2022-07-22T09:57:52;101278.17;;;20.98;64.81
61478;BME280;47345;52.334;10.392;2022-07-22T10:00:24;101281.58;;;20.98;64.44
61478;BME280;47345;52.334;10.392;2022-07-22T10:02:58;101279.92;;;20.99;64.20
61478;BME280;47345;52.334;10.392;2022-07-22T10:05:31;101277.27;;;21.01;63.73
61478;BME280;47345;52.334;10.392;2022-07-22T10:08:03;101275.66;;;21.01;64.05
61478;BME280;47345;52.334;10.392;2022-07-22T10:10:35;101275.21;;;21.02;64.18
61478;BME280;47345;52.334;10.392;2022-07-22T10:13:07;101276.23;;;21.03;63.97
61478;BME280;47345;52.334;10.392;2022-07-22T10:15:38;101270.89;;;21.04;63.29
61478;BME280;47345;52.334;10.392;2022-07-22T10:18:13;101266.38;;;21.02;62.61
61478;BME280;47345;52.334;10.392;2022-07-22T10:20:45;101271.08;;;21.00;62.89
61478;BME280;47345;52.334;10.392;2022-07-22T10:23:17;101267.02;;;20.99;62.99
61478;BME280;47345;52.334;10.392;2022-07-22T10:25:52;101273.45;;;20.98;62.98
61478;BME280;47345;52.334;10.392;2022-07-22T10:28:25;101276.20;;;20.88;63.26
61478;BME280;47345;52.334;10.392;2022-07-22T10:31:20;101275.33;;;20.75;63.87
61478;BME280;47345;52.334;10.392;2022-07-22T10:33:54;101279.30;;;20.65;64.15
61478;BME280;47345;52.334;10.392;2022-07-22T10:36:37;101272.41;;;20.55;64.22
61478;BME280;47345;52.334;10.392;2022-07-22T10:39:13;101273.16;;;20.47;64.67
61478;BME280;47345;52.334;10.392;2022-07-22T10:41:44;101273.02;;;20.44;65.05
61478;BME280;47345;52.334;10.392;2022-07-22T10:47:17;101270.52;;;20.56;64.98
61478;BME280;47345;52.334;10.392;2022-07-22T10:50:40;101266.30;;;20.60;64.75
61478;BME280;47345;52.334;10.392;2022-07-22T10:53:12;101271.08;;;20.66;64.17
61478;BME280;47345;52.334;10.392;2022-07-22T10:56:03;101273.88;;;20.70;64.04
61478;BME280;47345;52.334;10.392;2022-07-22T10:58:46;101271.25;;;20.73;63.59
61478;BME280;47345;52.334;10.392;2022-07-22T11:01:18;101272.77;;;20.78;63.10
61478;BME280;47345;52.334;10.392;2022-07-22T11:03:50;101273.71;;;20.84;63.48
61478;BME280;47345;52.334;10.392;2022-07-22T11:06:27;101271.66;;;20.90;62.84
61478;BME280;47345;52.334;10.392;2022-07-22T11:08:59;101273.30;;;20.99;62.72
61478;BME280;47345;52.334;10.392;2022-07-22T11:11:38;101270.79;;;21.05;62.50
61478;BME280;47345;52.334;10.392;2022-07-22T11:14:21;101263.54;;;21.16;62.41
61478;BME280;47345;52.334;10.392;2022-07-22T11:16:55;101255.78;;;21.30;61.75
61478;BME280;47345;52.334;10.392;2022-07-22T11:19:28;101254.87;;;21.41;61.30
61478;BME280;47345;52.334;10.392;2022-07-22T11:22:03;101257.58;;;21.49;60.41
61478;BME280;47345;52.334;10.392;2022-07-22T11:24:35;101261.93;;;21.50;60.37
61478;BME280;47345;52.334;10.392;2022-07-22T11:27:13;101260.36;;;21.48;60.43
61478;BME280;47345;52.334;10.392;2022-07-22T11:29:47;101264.66;;;21.42;60.32
61478;BME280;47345;52.334;10.392;2022-07-22T11:32:18;101263.61;;;21.35;60.33
61478;BME280;47345;52.334;10.392;2022-07-22T11:34:57;101265.35;;;21.29;60.41
61478;BME280;47345;52.334;10.392;2022-07-22T11:37:29;101266.09;;;21.22;60.44
61478;BME280;47345;52.334;10.392;2022-07-22T11:40:03;101265.55;;;21.16;60.77
61478;BME280;47345;52.334;10.392;2022-07-22T11:42:34;101266.95;;;21.06;61.35
61478;BME280;47345;52.334;10.392;2022-07-22T11:45:06;101268.65;;;20.96;61.61
61478;BME280;47345;52.334;10.392;2022-07-22T11:47:37;101275.41;;;20.87;61.77
61478;BME280;47345;52.334;10.392;2022-07-22T11:50:09;101275.38;;;20.79;62.12
61478;BME280;47345;52.334;10.392;2022-07-22T11:52:39;101276.73;;;20.72;62.35
61478;BME280;47345;52.334;10.392;2022-07-22T11:55:21;101275.42;;;20.68;62.55
61478;BME280;47345;52.334;10.392;2022-07-22T11:57:51;101275.52;;;20.66;62.66
61478;BME280;47345;52.334;10.392;2022-07-22T12:00:23;101274.82;;;20.69;62.59
61478;BME280;47345;52.334;10.392;2022-07-22T12:02:53;101272.36;;;20.74;62.54
61478;BME280;47345;52.334;10.392;2022-07-22T12:05:24;101269.81;;;20.78;62.22
61478;BME280;47345;52.334;10.392;2022-07-22T12:08:03;101269.42;;;20.78;61.95
61478;BME280;47345;52.334;10.392;2022-07-22T12:10:33;101273.94;;;20.79;62.07
61478;BME280;47345;52.334;10.392;2022-07-22T12:13:03;101273.23;;;20.78;62.10
61478;BME280;47345;52.334;10.392;2022-07-22T12:15:34;101272.28;;;20.80;62.02
61478;BME280;47345;52.334;10.392;2022-07-22T12:18:21;101271.73;;;20.80;62.06
61478;BME280;47345;52.334;10.392;2022-07-22T12:20:53;101273.67;;;20.80;61.92
61478;BME280;47345;52.334;10.392;2022-07-22T12:23:26;101269.56;;;20.79;62.01
61478;BME280;47345;52.334;10.392;2022-07-22T12:25:59;101272.62;;;20.79;61.76
61478;BME280;47345;52.334;10.392;2022-07-22T12:28:31;101269.06;;;20.77;61.54
61478;BME280;47345;52.334;10.392;2022-07-22T12:31:01;101265.25;;;20.75;61.61
61478;BME280;47345;52.334;10.392;2022-07-22T12:33:32;101258.41;;;20.74;61.66
61478;BME280;47345;52.334;10.392;2022-07-22T12:36:05;101253.91;;;20.74;62.01
61478;BME280;47345;52.334;10.392;2022-07-22T12:38:36;101257.89;;;20.79;61.85
61478;BME280;47345;52.334;10.392;2022-07-22T12:41:26;101247.75;;;20.84;61.84
61478;BME280;47345;52.334;10.392;2022-07-22T12:43:59;101247.92;;;20.91;61.77
61478;BME280;47345;52.334;10.392;2022-07-22T12:46:30;101246.27;;;20.99;61.75
61478;BME280;47345;52.334;10.392;2022-07-22T12:49:01;101247.91;;;21.09;61.53
61478;BME280;47345;52.334;10.392;2022-07-22T12:51:32;101247.15;;;21.19;60.81
61478;BME280;47345;52.334;10.392;2022-07-22T12:54:02;101245.69;;;21.26;60.77
61478;BME280;47345;52.334;10.392;2022-07-22T12:56:33;101245.98;;;21.30;60.75
61478;BME280;47345;52.334;10.392;2022-07-22T12:59:05;101249.11;;;21.30;60.10
61478;BME280;47345;52.334;10.392;2022-07-22T13:01:36;101255.26;;;21.26;59.66
61478;BME280;47345;52.334;10.392;2022-07-22T13:04:06;101253.29;;;21.20;59.33
61478;BME280;47345;52.334;10.392;2022-07-22T13:06:37;101247.94;;;21.13;59.30
61478;BME280;47345;52.334;10.392;2022-07-22T13:09:07;101247.06;;;21.08;59.77